<?xml version="1.0" encoding="UTF-8" standalone="no" ?>
<gpx xmlns="http://www.topografix.com/GPX/1/1" xmlns:xsi="http://www.w3.org/2001/XMLSchema-instance" xsi:schemaLocation="http://www.topografix.com/GPX/1/1 http://www.topografix.com/GPX/1/1/gpx.xsd" version="1.1" creator="VisuGPX - https://www.visugpx.com">
  <metadata>
    <name>saut de puce en Dominique</name>
    <desc><![CDATA[à l'occasion d'un vol privé sur un petit coucou]]></desc>
  </metadata>
  <trk>
    <name><![CDATA[Tracé actuel: 11 NOV 2016 14:27]]></name>
    <cmt><![CDATA[Chemin #0 :

101.3 km en 0:29:00 (209.6km/h)

1688.1m de montée et 1577.5m de descente

Altitude minimum -100.8m, altitude maximum 1525.3m 

Chemin #1 :

17.8 km en 0:06:34 (162.3km/h)

40.9m de montée et 1486.7m de descente

Altitude minimum -1451.5m, altitude maximum 13.6m 

Chemin #2 :

21.2 km en 0:05:38 (224.7km/h)

494.1m de montée et 62.0m de descente

Altitude minimum 1143.1m, altitude maximum 1637.3m 

Chemin #3 :

49.9 km en 0:15:02 (199.1km/h)

290.3m de montée et 1095.4m de descente

Altitude minimum -92.2m, altitude maximum 931.6m 

Total des traces :

190.2 km en 0:56:15 (202.8km/h)

Altitude minimum -1451.5m, altitude maximum 1637.3m]]></cmt>
    <trkseg>
      <trkpt lat="14.59288" lon="-61.00741">
        <ele>-100.8</ele>
        <time>2016-11-11T18:27:02Z</time>
      </trkpt>
      <trkpt lat="14.59212" lon="-61.0073">
        <ele>-97.92</ele>
        <time>2016-11-11T18:27:19Z</time>
      </trkpt>
      <trkpt lat="14.59196" lon="-61.0075">
        <ele>-97.92</ele>
        <time>2016-11-11T18:27:26Z</time>
      </trkpt>
      <trkpt lat="14.59189" lon="-61.00853">
        <ele>-73.88</ele>
        <time>2016-11-11T18:27:42Z</time>
      </trkpt>
      <trkpt lat="14.59157" lon="-61.01004">
        <ele>-9.96</ele>
        <time>2016-11-11T18:28:05Z</time>
      </trkpt>
      <trkpt lat="14.59126" lon="-61.01181">
        <ele>-3.23</ele>
        <time>2016-11-11T18:28:24Z</time>
      </trkpt>
      <trkpt lat="14.59102" lon="-61.01323">
        <ele>-2.75</ele>
        <time>2016-11-11T18:28:39Z</time>
      </trkpt>
      <trkpt lat="14.59097" lon="-61.01341">
        <ele>-2.75</ele>
        <time>2016-11-11T18:28:40Z</time>
      </trkpt>
      <trkpt lat="14.59057" lon="-61.01365">
        <ele>-4.19</ele>
        <time>2016-11-11T18:28:50Z</time>
      </trkpt>
      <trkpt lat="14.59052" lon="-61.01364">
        <ele>-4.19</ele>
        <time>2016-11-11T18:28:51Z</time>
      </trkpt>
      <trkpt lat="14.59028" lon="-61.0136">
        <ele>-5.15</ele>
        <time>2016-11-11T18:29:01Z</time>
      </trkpt>
      <trkpt lat="14.59015" lon="-61.01358">
        <ele>-5.63</ele>
        <time>2016-11-11T18:29:26Z</time>
      </trkpt>
      <trkpt lat="14.58955" lon="-61.01349">
        <ele>-2.75</ele>
        <time>2016-11-11T18:29:37Z</time>
      </trkpt>
      <trkpt lat="14.58936" lon="-61.01346">
        <ele>-1.79</ele>
        <time>2016-11-11T18:29:40Z</time>
      </trkpt>
      <trkpt lat="14.58928" lon="-61.01329">
        <ele>-1.3</ele>
        <time>2016-11-11T18:29:47Z</time>
      </trkpt>
      <trkpt lat="14.5894" lon="-61.01283">
        <ele>-1.79</ele>
        <time>2016-11-11T18:29:56Z</time>
      </trkpt>
      <trkpt lat="14.58958" lon="-61.01195">
        <ele>-2.75</ele>
        <time>2016-11-11T18:30:01Z</time>
      </trkpt>
      <trkpt lat="14.58985" lon="-61.01025">
        <ele>-5.63</ele>
        <time>2016-11-11T18:30:07Z</time>
      </trkpt>
      <trkpt lat="14.59032" lon="-61.00776">
        <ele>-2.75</ele>
        <time>2016-11-11T18:30:14Z</time>
      </trkpt>
      <trkpt lat="14.591" lon="-61.00287">
        <ele>14.56</ele>
        <time>2016-11-11T18:30:27Z</time>
      </trkpt>
      <trkpt lat="14.59161" lon="-60.99857">
        <ele>38.11</ele>
        <time>2016-11-11T18:30:39Z</time>
      </trkpt>
      <trkpt lat="14.59211" lon="-60.99397">
        <ele>67.91</ele>
        <time>2016-11-11T18:30:52Z</time>
      </trkpt>
      <trkpt lat="14.59261" lon="-60.99015">
        <ele>100.11</ele>
        <time>2016-11-11T18:31:03Z</time>
      </trkpt>
      <trkpt lat="14.59278" lon="-60.98948">
        <ele>111.17</ele>
        <time>2016-11-11T18:31:05Z</time>
      </trkpt>
      <trkpt lat="14.59401" lon="-60.9876">
        <ele>153.47</ele>
        <time>2016-11-11T18:31:11Z</time>
      </trkpt>
      <trkpt lat="14.59571" lon="-60.98611">
        <ele>208.74</ele>
        <time>2016-11-11T18:31:17Z</time>
      </trkpt>
      <trkpt lat="14.59767" lon="-60.98496">
        <ele>251.52</ele>
        <time>2016-11-11T18:31:23Z</time>
      </trkpt>
      <trkpt lat="14.59995" lon="-60.98435">
        <ele>292.38</ele>
        <time>2016-11-11T18:31:29Z</time>
      </trkpt>
      <trkpt lat="14.60226" lon="-60.98417">
        <ele>331.79</ele>
        <time>2016-11-11T18:31:35Z</time>
      </trkpt>
      <trkpt lat="14.60568" lon="-60.98454">
        <ele>399.08</ele>
        <time>2016-11-11T18:31:44Z</time>
      </trkpt>
      <trkpt lat="14.60908" lon="-60.98521">
        <ele>474.55</ele>
        <time>2016-11-11T18:31:53Z</time>
      </trkpt>
      <trkpt lat="14.61274" lon="-60.98631">
        <ele>551.93</ele>
        <time>2016-11-11T18:32:03Z</time>
      </trkpt>
      <trkpt lat="14.61742" lon="-60.98745">
        <ele>633.65</ele>
        <time>2016-11-11T18:32:15Z</time>
      </trkpt>
      <trkpt lat="14.62245" lon="-60.98839">
        <ele>705.26</ele>
        <time>2016-11-11T18:32:27Z</time>
      </trkpt>
      <trkpt lat="14.6292" lon="-60.98962">
        <ele>800.44</ele>
        <time>2016-11-11T18:32:43Z</time>
      </trkpt>
      <trkpt lat="14.63494" lon="-60.99054">
        <ele>870.61</ele>
        <time>2016-11-11T18:32:56Z</time>
      </trkpt>
      <trkpt lat="14.64096" lon="-60.99155">
        <ele>944.63</ele>
        <time>2016-11-11T18:33:10Z</time>
      </trkpt>
      <trkpt lat="14.6473" lon="-60.99264">
        <ele>1018.17</ele>
        <time>2016-11-11T18:33:24Z</time>
      </trkpt>
      <trkpt lat="14.65445" lon="-60.99416">
        <ele>1105.17</ele>
        <time>2016-11-11T18:33:40Z</time>
      </trkpt>
      <trkpt lat="14.66005" lon="-60.995">
        <ele>1158.53</ele>
        <time>2016-11-11T18:33:52Z</time>
      </trkpt>
      <trkpt lat="14.66525" lon="-60.99552">
        <ele>1206.59</ele>
        <time>2016-11-11T18:34:03Z</time>
      </trkpt>
      <trkpt lat="14.67138" lon="-60.99614">
        <ele>1264.75</ele>
        <time>2016-11-11T18:34:16Z</time>
      </trkpt>
      <trkpt lat="14.67596" lon="-60.99709">
        <ele>1313.78</ele>
        <time>2016-11-11T18:34:26Z</time>
      </trkpt>
      <trkpt lat="14.68183" lon="-60.99873">
        <ele>1375.3</ele>
        <time>2016-11-11T18:34:39Z</time>
      </trkpt>
      <trkpt lat="14.68945" lon="-61.00054">
        <ele>1454.61</ele>
        <time>2016-11-11T18:34:56Z</time>
      </trkpt>
      <trkpt lat="14.69431" lon="-61.00149">
        <ele>1488.74</ele>
        <time>2016-11-11T18:35:06Z</time>
      </trkpt>
      <trkpt lat="14.6992" lon="-61.00233">
        <ele>1509.89</ele>
        <time>2016-11-11T18:35:15Z</time>
      </trkpt>
      <trkpt lat="14.7051" lon="-61.00343">
        <ele>1521.42</ele>
        <time>2016-11-11T18:35:25Z</time>
      </trkpt>
      <trkpt lat="14.71405" lon="-61.00542">
        <ele>1520.46</ele>
        <time>2016-11-11T18:35:40Z</time>
      </trkpt>
      <trkpt lat="14.72236" lon="-61.00727">
        <ele>1525.27</ele>
        <time>2016-11-11T18:35:54Z</time>
      </trkpt>
      <trkpt lat="14.72961" lon="-61.00881">
        <ele>1522.87</ele>
        <time>2016-11-11T18:36:06Z</time>
      </trkpt>
      <trkpt lat="14.73639" lon="-61.01049">
        <ele>1517.58</ele>
        <time>2016-11-11T18:36:17Z</time>
      </trkpt>
      <trkpt lat="14.74369" lon="-61.01284">
        <ele>1514.69</ele>
        <time>2016-11-11T18:36:29Z</time>
      </trkpt>
      <trkpt lat="14.75251" lon="-61.01603">
        <ele>1496.91</ele>
        <time>2016-11-11T18:36:43Z</time>
      </trkpt>
      <trkpt lat="14.76453" lon="-61.02052">
        <ele>1469.51</ele>
        <time>2016-11-11T18:37:02Z</time>
      </trkpt>
      <trkpt lat="14.77655" lon="-61.02514">
        <ele>1450.29</ele>
        <time>2016-11-11T18:37:21Z</time>
      </trkpt>
      <trkpt lat="14.78391" lon="-61.02857">
        <ele>1445.48</ele>
        <time>2016-11-11T18:37:33Z</time>
      </trkpt>
      <trkpt lat="14.79153" lon="-61.03261">
        <ele>1446.92</ele>
        <time>2016-11-11T18:37:46Z</time>
      </trkpt>
      <trkpt lat="14.79845" lon="-61.03686">
        <ele>1444.04</ele>
        <time>2016-11-11T18:37:58Z</time>
      </trkpt>
      <trkpt lat="14.80679" lon="-61.04215">
        <ele>1448.84</ele>
        <time>2016-11-11T18:38:13Z</time>
      </trkpt>
      <trkpt lat="14.81369" lon="-61.04646">
        <ele>1445.96</ele>
        <time>2016-11-11T18:38:25Z</time>
      </trkpt>
      <trkpt lat="14.8215" lon="-61.0515">
        <ele>1448.36</ele>
        <time>2016-11-11T18:38:39Z</time>
      </trkpt>
      <trkpt lat="14.82993" lon="-61.05718">
        <ele>1443.56</ele>
        <time>2016-11-11T18:38:54Z</time>
      </trkpt>
      <trkpt lat="14.8388" lon="-61.06357">
        <ele>1443.56</ele>
        <time>2016-11-11T18:39:10Z</time>
      </trkpt>
      <trkpt lat="14.84764" lon="-61.07016">
        <ele>1439.23</ele>
        <time>2016-11-11T18:39:26Z</time>
      </trkpt>
      <trkpt lat="14.85837" lon="-61.07829">
        <ele>1439.23</ele>
        <time>2016-11-11T18:39:46Z</time>
      </trkpt>
      <trkpt lat="14.86703" lon="-61.08486">
        <ele>1434.91</ele>
        <time>2016-11-11T18:40:02Z</time>
      </trkpt>
      <trkpt lat="14.87397" lon="-61.09025">
        <ele>1437.79</ele>
        <time>2016-11-11T18:40:15Z</time>
      </trkpt>
      <trkpt lat="14.88211" lon="-61.09623">
        <ele>1435.87</ele>
        <time>2016-11-11T18:40:30Z</time>
      </trkpt>
      <trkpt lat="14.88919" lon="-61.10156">
        <ele>1433.46</ele>
        <time>2016-11-11T18:40:43Z</time>
      </trkpt>
      <trkpt lat="14.89812" lon="-61.10862">
        <ele>1431.54</ele>
        <time>2016-11-11T18:41:00Z</time>
      </trkpt>
      <trkpt lat="14.9049" lon="-61.1139">
        <ele>1430.1</ele>
        <time>2016-11-11T18:41:13Z</time>
      </trkpt>
      <trkpt lat="14.91175" lon="-61.11918">
        <ele>1426.25</ele>
        <time>2016-11-11T18:41:26Z</time>
      </trkpt>
      <trkpt lat="14.92086" lon="-61.12611">
        <ele>1422.41</ele>
        <time>2016-11-11T18:41:43Z</time>
      </trkpt>
      <trkpt lat="14.9279" lon="-61.13158">
        <ele>1412.79</ele>
        <time>2016-11-11T18:41:56Z</time>
      </trkpt>
      <trkpt lat="14.93624" lon="-61.13861">
        <ele>1413.28</ele>
        <time>2016-11-11T18:42:12Z</time>
      </trkpt>
      <trkpt lat="14.94488" lon="-61.14614">
        <ele>1424.81</ele>
        <time>2016-11-11T18:42:29Z</time>
      </trkpt>
      <trkpt lat="14.956" lon="-61.15577">
        <ele>1432.5</ele>
        <time>2016-11-11T18:42:51Z</time>
      </trkpt>
      <trkpt lat="14.96608" lon="-61.16473">
        <ele>1429.62</ele>
        <time>2016-11-11T18:43:11Z</time>
      </trkpt>
      <trkpt lat="14.97394" lon="-61.17199">
        <ele>1429.62</ele>
        <time>2016-11-11T18:43:27Z</time>
      </trkpt>
      <trkpt lat="14.98047" lon="-61.17768">
        <ele>1431.06</ele>
        <time>2016-11-11T18:43:40Z</time>
      </trkpt>
      <trkpt lat="14.98959" lon="-61.18537">
        <ele>1435.39</ele>
        <time>2016-11-11T18:43:58Z</time>
      </trkpt>
      <trkpt lat="14.99925" lon="-61.19341">
        <ele>1439.23</ele>
        <time>2016-11-11T18:44:17Z</time>
      </trkpt>
      <trkpt lat="15.00837" lon="-61.2011">
        <ele>1440.67</ele>
        <time>2016-11-11T18:44:35Z</time>
      </trkpt>
      <trkpt lat="15.02062" lon="-61.2114">
        <ele>1435.87</ele>
        <time>2016-11-11T18:44:59Z</time>
      </trkpt>
      <trkpt lat="15.03032" lon="-61.21953">
        <ele>1430.58</ele>
        <time>2016-11-11T18:45:18Z</time>
      </trkpt>
      <trkpt lat="15.03754" lon="-61.22558">
        <ele>1426.73</ele>
        <time>2016-11-11T18:45:32Z</time>
      </trkpt>
      <trkpt lat="15.04431" lon="-61.23133">
        <ele>1416.16</ele>
        <time>2016-11-11T18:45:45Z</time>
      </trkpt>
      <trkpt lat="15.05168" lon="-61.2378">
        <ele>1395.01</ele>
        <time>2016-11-11T18:45:59Z</time>
      </trkpt>
      <trkpt lat="15.06175" lon="-61.2469">
        <ele>1334.45</ele>
        <time>2016-11-11T18:46:18Z</time>
      </trkpt>
      <trkpt lat="15.07238" lon="-61.25647">
        <ele>1278.21</ele>
        <time>2016-11-11T18:46:38Z</time>
      </trkpt>
      <trkpt lat="15.08145" lon="-61.26454">
        <ele>1235.43</ele>
        <time>2016-11-11T18:46:55Z</time>
      </trkpt>
      <trkpt lat="15.08698" lon="-61.26909">
        <ele>1208.03</ele>
        <time>2016-11-11T18:47:05Z</time>
      </trkpt>
      <trkpt lat="15.09329" lon="-61.27381">
        <ele>1164.77</ele>
        <time>2016-11-11T18:47:16Z</time>
      </trkpt>
      <trkpt lat="15.10112" lon="-61.2803">
        <ele>1113.34</ele>
        <time>2016-11-11T18:47:30Z</time>
      </trkpt>
      <trkpt lat="15.11211" lon="-61.28963">
        <ele>1066.72</ele>
        <time>2016-11-11T18:47:50Z</time>
      </trkpt>
      <trkpt lat="15.11793" lon="-61.29502">
        <ele>1043.17</ele>
        <time>2016-11-11T18:48:01Z</time>
      </trkpt>
      <trkpt lat="15.1239" lon="-61.30136">
        <ele>1013.37</ele>
        <time>2016-11-11T18:48:13Z</time>
      </trkpt>
      <trkpt lat="15.13051" lon="-61.30922">
        <ele>974.91</ele>
        <time>2016-11-11T18:48:27Z</time>
      </trkpt>
      <trkpt lat="15.1385" lon="-61.31879">
        <ele>936.46</ele>
        <time>2016-11-11T18:48:44Z</time>
      </trkpt>
      <trkpt lat="15.14481" lon="-61.32698">
        <ele>896.09</ele>
        <time>2016-11-11T18:48:58Z</time>
      </trkpt>
      <trkpt lat="15.15172" lon="-61.33563">
        <ele>857.15</ele>
        <time>2016-11-11T18:49:13Z</time>
      </trkpt>
      <trkpt lat="15.15941" lon="-61.34454">
        <ele>820.62</ele>
        <time>2016-11-11T18:49:29Z</time>
      </trkpt>
      <trkpt lat="15.17029" lon="-61.35659">
        <ele>765.35</ele>
        <time>2016-11-11T18:49:51Z</time>
      </trkpt>
      <trkpt lat="15.17543" lon="-61.36175">
        <ele>739.39</ele>
        <time>2016-11-11T18:50:01Z</time>
      </trkpt>
      <trkpt lat="15.17874" lon="-61.36452">
        <ele>724.49</ele>
        <time>2016-11-11T18:50:07Z</time>
      </trkpt>
      <trkpt lat="15.18295" lon="-61.36731">
        <ele>706.71</ele>
        <time>2016-11-11T18:50:14Z</time>
      </trkpt>
      <trkpt lat="15.19046" lon="-61.3716">
        <ele>671.62</ele>
        <time>2016-11-11T18:50:26Z</time>
      </trkpt>
      <trkpt lat="15.19612" lon="-61.37449">
        <ele>647.1</ele>
        <time>2016-11-11T18:50:35Z</time>
      </trkpt>
      <trkpt lat="15.20127" lon="-61.37658">
        <ele>625.96</ele>
        <time>2016-11-11T18:50:43Z</time>
      </trkpt>
      <trkpt lat="15.2085" lon="-61.37886">
        <ele>592.79</ele>
        <time>2016-11-11T18:50:54Z</time>
      </trkpt>
      <trkpt lat="15.21773" lon="-61.38161">
        <ele>549.05</ele>
        <time>2016-11-11T18:51:08Z</time>
      </trkpt>
      <trkpt lat="15.22411" lon="-61.38355">
        <ele>528.86</ele>
        <time>2016-11-11T18:51:18Z</time>
      </trkpt>
      <trkpt lat="15.23098" lon="-61.38524">
        <ele>505.79</ele>
        <time>2016-11-11T18:51:29Z</time>
      </trkpt>
      <trkpt lat="15.23768" lon="-61.38653">
        <ele>478.87</ele>
        <time>2016-11-11T18:51:40Z</time>
      </trkpt>
      <trkpt lat="15.24319" lon="-61.38735">
        <ele>455.32</ele>
        <time>2016-11-11T18:51:49Z</time>
      </trkpt>
      <trkpt lat="15.24978" lon="-61.38794">
        <ele>432.73</ele>
        <time>2016-11-11T18:52:00Z</time>
      </trkpt>
      <trkpt lat="15.25774" lon="-61.38858">
        <ele>389.47</ele>
        <time>2016-11-11T18:52:13Z</time>
      </trkpt>
      <trkpt lat="15.26269" lon="-61.38912">
        <ele>362.55</ele>
        <time>2016-11-11T18:52:21Z</time>
      </trkpt>
      <trkpt lat="15.26822" lon="-61.38977">
        <ele>340.44</ele>
        <time>2016-11-11T18:52:30Z</time>
      </trkpt>
      <trkpt lat="15.27311" lon="-61.39024">
        <ele>325.54</ele>
        <time>2016-11-11T18:52:38Z</time>
      </trkpt>
      <trkpt lat="15.27716" lon="-61.39054">
        <ele>333.71</ele>
        <time>2016-11-11T18:52:45Z</time>
      </trkpt>
      <trkpt lat="15.28207" lon="-61.39088">
        <ele>330.83</ele>
        <time>2016-11-11T18:52:54Z</time>
      </trkpt>
      <trkpt lat="15.28855" lon="-61.39126">
        <ele>316.89</ele>
        <time>2016-11-11T18:53:06Z</time>
      </trkpt>
      <trkpt lat="15.29208" lon="-61.39133">
        <ele>319.78</ele>
        <time>2016-11-11T18:53:13Z</time>
      </trkpt>
      <trkpt lat="15.29678" lon="-61.3914">
        <ele>312.57</ele>
        <time>2016-11-11T18:53:23Z</time>
      </trkpt>
      <trkpt lat="15.30169" lon="-61.39141">
        <ele>293.34</ele>
        <time>2016-11-11T18:53:34Z</time>
      </trkpt>
      <trkpt lat="15.30588" lon="-61.39138">
        <ele>260.65</ele>
        <time>2016-11-11T18:53:44Z</time>
      </trkpt>
      <trkpt lat="15.3116" lon="-61.39123">
        <ele>216.91</ele>
        <time>2016-11-11T18:53:58Z</time>
      </trkpt>
      <trkpt lat="15.31695" lon="-61.39105">
        <ele>184.71</ele>
        <time>2016-11-11T18:54:11Z</time>
      </trkpt>
      <trkpt lat="15.32156" lon="-61.39114">
        <ele>152.99</ele>
        <time>2016-11-11T18:54:22Z</time>
      </trkpt>
      <trkpt lat="15.32555" lon="-61.39136">
        <ele>124.63</ele>
        <time>2016-11-11T18:54:32Z</time>
      </trkpt>
      <trkpt lat="15.32973" lon="-61.39162">
        <ele>87.62</ele>
        <time>2016-11-11T18:54:43Z</time>
      </trkpt>
      <trkpt lat="15.33335" lon="-61.39186">
        <ele>48.68</ele>
        <time>2016-11-11T18:54:53Z</time>
      </trkpt>
      <trkpt lat="15.33519" lon="-61.39195">
        <ele>30.9</ele>
        <time>2016-11-11T18:54:59Z</time>
      </trkpt>
      <trkpt lat="15.33684" lon="-61.39205">
        <ele>19.36</ele>
        <time>2016-11-11T18:55:06Z</time>
      </trkpt>
      <trkpt lat="15.33817" lon="-61.39215">
        <ele>14.08</ele>
        <time>2016-11-11T18:55:14Z</time>
      </trkpt>
      <trkpt lat="15.33954" lon="-61.39225">
        <ele>12.63</ele>
        <time>2016-11-11T18:55:25Z</time>
      </trkpt>
      <trkpt lat="15.3399" lon="-61.39223">
        <ele>12.15</ele>
        <time>2016-11-11T18:55:32Z</time>
      </trkpt>
      <trkpt lat="15.33995" lon="-61.3919">
        <ele>10.23</ele>
        <time>2016-11-11T18:55:42Z</time>
      </trkpt>
      <trkpt lat="15.33966" lon="-61.39177">
        <ele>9.27</ele>
        <time>2016-11-11T18:55:53Z</time>
      </trkpt>
      <trkpt lat="15.33943" lon="-61.39176">
        <ele>9.75</ele>
        <time>2016-11-11T18:56:02Z</time>
      </trkpt>
      <trkpt lat="15.33434" lon="-61.3919">
        <ele>-5.63</ele>
        <time>2016-11-11T19:38:14Z</time>
      </trkpt>
      <trkpt lat="15.33311" lon="-61.39181">
        <ele>11.67</ele>
        <time>2016-11-11T19:38:26Z</time>
      </trkpt>
      <trkpt lat="15.3328" lon="-61.39173">
        <ele>12.15</ele>
        <time>2016-11-11T19:38:31Z</time>
      </trkpt>
      <trkpt lat="15.33258" lon="-61.39164">
        <ele>11.19</ele>
        <time>2016-11-11T19:38:39Z</time>
      </trkpt>
      <trkpt lat="15.33264" lon="-61.39177">
        <ele>11.67</ele>
        <time>2016-11-11T19:38:47Z</time>
      </trkpt>
      <trkpt lat="15.33296" lon="-61.39185">
        <ele>12.63</ele>
        <time>2016-11-11T19:39:01Z</time>
      </trkpt>
      <trkpt lat="15.33346" lon="-61.392">
        <ele>10.71</ele>
        <time>2016-11-11T19:39:06Z</time>
      </trkpt>
      <trkpt lat="15.3353" lon="-61.39199">
        <ele>13.6</ele>
        <time>2016-11-11T19:39:10Z</time>
      </trkpt>
      <trkpt lat="15.33803" lon="-61.3922">
        <ele>9.75</ele>
        <time>2016-11-11T19:39:18Z</time>
      </trkpt>
      <trkpt lat="15.34066" lon="-61.39261">
        <ele>-1.3</ele>
        <time>2016-11-11T19:39:25Z</time>
      </trkpt>
      <trkpt lat="15.34325" lon="-61.39356">
        <ele>-15.72</ele>
        <time>2016-11-11T19:39:32Z</time>
      </trkpt>
      <trkpt lat="15.34567" lon="-61.39495">
        <ele>-29.66</ele>
        <time>2016-11-11T19:39:39Z</time>
      </trkpt>
      <trkpt lat="15.34741" lon="-61.39658">
        <ele>-44.56</ele>
        <time>2016-11-11T19:39:45Z</time>
      </trkpt>
      <trkpt lat="15.34849" lon="-61.3984">
        <ele>-46.97</ele>
        <time>2016-11-11T19:39:50Z</time>
      </trkpt>
      <trkpt lat="15.34932" lon="-61.40109">
        <ele>-43.12</ele>
        <time>2016-11-11T19:39:56Z</time>
      </trkpt>
      <trkpt lat="15.34968" lon="-61.40377">
        <ele>-34.95</ele>
        <time>2016-11-11T19:40:02Z</time>
      </trkpt>
      <trkpt lat="15.34958" lon="-61.40636">
        <ele>-28.22</ele>
        <time>2016-11-11T19:40:08Z</time>
      </trkpt>
      <trkpt lat="15.34887" lon="-61.40868">
        <ele>-34.47</ele>
        <time>2016-11-11T19:40:13Z</time>
      </trkpt>
      <trkpt lat="15.34742" lon="-61.41111">
        <ele>-45.53</ele>
        <time>2016-11-11T19:40:19Z</time>
      </trkpt>
      <trkpt lat="15.34579" lon="-61.41288">
        <ele>-54.66</ele>
        <time>2016-11-11T19:40:24Z</time>
      </trkpt>
      <trkpt lat="15.34384" lon="-61.41428">
        <ele>-64.27</ele>
        <time>2016-11-11T19:40:29Z</time>
      </trkpt>
      <trkpt lat="15.34125" lon="-61.4154">
        <ele>-79.17</ele>
        <time>2016-11-11T19:40:35Z</time>
      </trkpt>
      <trkpt lat="15.33752" lon="-61.4163">
        <ele>-104.65</ele>
        <time>2016-11-11T19:40:43Z</time>
      </trkpt>
      <trkpt lat="15.33381" lon="-61.41694">
        <ele>-138.77</ele>
        <time>2016-11-11T19:40:51Z</time>
      </trkpt>
      <trkpt lat="15.32823" lon="-61.41763">
        <ele>-185.4</ele>
        <time>2016-11-11T19:41:03Z</time>
      </trkpt>
      <trkpt lat="15.32354" lon="-61.41935">
        <ele>-477.16</ele>
        <time>2016-11-11T19:41:12Z</time>
      </trkpt>
      <trkpt lat="15.31747" lon="-61.41943">
        <ele>-536.28</ele>
        <time>2016-11-11T19:41:26Z</time>
      </trkpt>
      <trkpt lat="15.31247" lon="-61.41912">
        <ele>-600.69</ele>
        <time>2016-11-11T19:41:38Z</time>
      </trkpt>
      <trkpt lat="15.30768" lon="-61.4186">
        <ele>-651.64</ele>
        <time>2016-11-11T19:41:49Z</time>
      </trkpt>
      <trkpt lat="15.30203" lon="-61.41769">
        <ele>-708.83</ele>
        <time>2016-11-11T19:42:02Z</time>
      </trkpt>
      <trkpt lat="15.2972" lon="-61.4167">
        <ele>-757.86</ele>
        <time>2016-11-11T19:42:13Z</time>
      </trkpt>
      <trkpt lat="15.29118" lon="-61.41558">
        <ele>-820.83</ele>
        <time>2016-11-11T19:42:26Z</time>
      </trkpt>
      <trkpt lat="15.2848" lon="-61.41428">
        <ele>-889.08</ele>
        <time>2016-11-11T19:42:40Z</time>
      </trkpt>
      <trkpt lat="15.2786" lon="-61.41332">
        <ele>-953.49</ele>
        <time>2016-11-11T19:42:53Z</time>
      </trkpt>
      <trkpt lat="15.27037" lon="-61.41212">
        <time>2016-11-11T19:43:11Z</time>
      </trkpt>
      <trkpt lat="15.26471" lon="-61.41097">
        <time>2016-11-11T19:43:24Z</time>
      </trkpt>
      <trkpt lat="15.25948" lon="-61.40965">
        <time>2016-11-11T19:43:35Z</time>
      </trkpt>
      <trkpt lat="15.25302" lon="-61.40792">
        <time>2016-11-11T19:43:49Z</time>
      </trkpt>
      <trkpt lat="15.24697" lon="-61.40627">
        <time>2016-11-11T19:44:02Z</time>
      </trkpt>
      <trkpt lat="15.24035" lon="-61.40402">
        <time>2016-11-11T19:44:17Z</time>
      </trkpt>
      <trkpt lat="15.23609" lon="-61.40244">
        <time>2016-11-11T19:44:26Z</time>
      </trkpt>
      <trkpt lat="15.23032" lon="-61.39976">
        <time>2016-11-11T19:44:38Z</time>
      </trkpt>
      <trkpt lat="15.22519" lon="-61.39711">
        <time>2016-11-11T19:44:49Z</time>
      </trkpt>
      <trkpt lat="15.17379" lon="-61.35778">
        <ele>1143.14</ele>
        <time>2016-11-11T19:46:47Z</time>
      </trkpt>
      <trkpt lat="15.16402" lon="-61.3498">
        <ele>1225.34</ele>
        <time>2016-11-11T19:47:08Z</time>
      </trkpt>
      <trkpt lat="15.15663" lon="-61.34432">
        <ele>1256.58</ele>
        <time>2016-11-11T19:47:24Z</time>
      </trkpt>
      <trkpt lat="15.14974" lon="-61.33944">
        <ele>1293.11</ele>
        <time>2016-11-11T19:47:39Z</time>
      </trkpt>
      <trkpt lat="15.14387" lon="-61.33525">
        <ele>1319.55</ele>
        <time>2016-11-11T19:47:52Z</time>
      </trkpt>
      <trkpt lat="15.13763" lon="-61.33113">
        <ele>1342.14</ele>
        <time>2016-11-11T19:48:06Z</time>
      </trkpt>
      <trkpt lat="15.13095" lon="-61.32629">
        <ele>1387.32</ele>
        <time>2016-11-11T19:48:21Z</time>
      </trkpt>
      <trkpt lat="15.12427" lon="-61.32146">
        <ele>1427.21</ele>
        <time>2016-11-11T19:48:36Z</time>
      </trkpt>
      <trkpt lat="15.11733" lon="-61.31652">
        <ele>1457.02</ele>
        <time>2016-11-11T19:48:52Z</time>
      </trkpt>
      <trkpt lat="15.11046" lon="-61.31117">
        <ele>1495.47</ele>
        <time>2016-11-11T19:49:08Z</time>
      </trkpt>
      <trkpt lat="15.10318" lon="-61.3054">
        <ele>1532.48</ele>
        <time>2016-11-11T19:49:25Z</time>
      </trkpt>
      <trkpt lat="15.09716" lon="-61.30064">
        <ele>1566.12</ele>
        <time>2016-11-11T19:49:39Z</time>
      </trkpt>
      <trkpt lat="15.09075" lon="-61.29595">
        <ele>1577.18</ele>
        <time>2016-11-11T19:49:53Z</time>
      </trkpt>
      <trkpt lat="15.08174" lon="-61.28956">
        <ele>1610.35</ele>
        <time>2016-11-11T19:50:13Z</time>
      </trkpt>
      <trkpt lat="15.0722" lon="-61.28249">
        <ele>1627.17</ele>
        <time>2016-11-11T19:50:33Z</time>
      </trkpt>
      <trkpt lat="15.06427" lon="-61.27637">
        <ele>1637.26</ele>
        <time>2016-11-11T19:50:50Z</time>
      </trkpt>
      <trkpt lat="15.05651" lon="-61.27026">
        <ele>1615.15</ele>
        <time>2016-11-11T19:51:06Z</time>
      </trkpt>
      <trkpt lat="15.04472" lon="-61.26207">
        <ele>1595.45</ele>
        <time>2016-11-11T19:51:30Z</time>
      </trkpt>
      <trkpt lat="15.03478" lon="-61.25524">
        <ele>1587.27</ele>
        <time>2016-11-11T19:51:51Z</time>
      </trkpt>
      <trkpt lat="15.02535" lon="-61.24846">
        <ele>1583.43</ele>
        <time>2016-11-11T19:52:12Z</time>
      </trkpt>
      <trkpt lat="15.01882" lon="-61.24389">
        <ele>1575.26</ele>
        <time>2016-11-11T19:52:26Z</time>
      </trkpt>
      <trkpt lat="14.9381" lon="-61.18419">
        <ele>839.85</ele>
        <time>2016-11-11T19:55:03Z</time>
      </trkpt>
      <trkpt lat="14.93211" lon="-61.18018">
        <ele>878.78</ele>
        <time>2016-11-11T19:55:17Z</time>
      </trkpt>
      <trkpt lat="14.92574" lon="-61.17528">
        <ele>931.65</ele>
        <time>2016-11-11T19:55:30Z</time>
      </trkpt>
      <trkpt lat="14.92224" lon="-61.17197">
        <ele>928.77</ele>
        <time>2016-11-11T19:55:38Z</time>
      </trkpt>
      <trkpt lat="14.9184" lon="-61.16826">
        <ele>930.69</ele>
        <time>2016-11-11T19:55:47Z</time>
      </trkpt>
      <trkpt lat="14.91218" lon="-61.16104">
        <ele>916.27</ele>
        <time>2016-11-11T19:56:03Z</time>
      </trkpt>
      <trkpt lat="14.90627" lon="-61.15333">
        <ele>916.75</ele>
        <time>2016-11-11T19:56:19Z</time>
      </trkpt>
      <trkpt lat="14.89943" lon="-61.14434">
        <ele>907.62</ele>
        <time>2016-11-11T19:56:38Z</time>
      </trkpt>
      <trkpt lat="14.89355" lon="-61.13705">
        <ele>879.74</ele>
        <time>2016-11-11T19:56:55Z</time>
      </trkpt>
      <trkpt lat="14.88722" lon="-61.12974">
        <ele>877.82</ele>
        <time>2016-11-11T19:57:13Z</time>
      </trkpt>
      <trkpt lat="14.88091" lon="-61.12238">
        <ele>877.34</ele>
        <time>2016-11-11T19:57:31Z</time>
      </trkpt>
      <trkpt lat="14.87456" lon="-61.11488">
        <ele>871.57</ele>
        <time>2016-11-11T19:57:49Z</time>
      </trkpt>
      <trkpt lat="14.86782" lon="-61.10695">
        <ele>873.98</ele>
        <time>2016-11-11T19:58:08Z</time>
      </trkpt>
      <trkpt lat="14.86037" lon="-61.09804">
        <ele>873.98</ele>
        <time>2016-11-11T19:58:29Z</time>
      </trkpt>
      <trkpt lat="14.85339" lon="-61.08955">
        <ele>876.38</ele>
        <time>2016-11-11T19:58:49Z</time>
      </trkpt>
      <trkpt lat="14.84678" lon="-61.08145">
        <ele>890.8</ele>
        <time>2016-11-11T19:59:08Z</time>
      </trkpt>
      <trkpt lat="14.84012" lon="-61.07347">
        <ele>906.66</ele>
        <time>2016-11-11T19:59:27Z</time>
      </trkpt>
      <trkpt lat="14.83273" lon="-61.0647">
        <ele>916.75</ele>
        <time>2016-11-11T19:59:48Z</time>
      </trkpt>
      <trkpt lat="14.82687" lon="-61.05818">
        <ele>719.2</ele>
        <time>2016-11-11T20:00:08Z</time>
      </trkpt>
      <trkpt lat="14.82248" lon="-61.0534">
        <ele>668.25</ele>
        <time>2016-11-11T20:00:20Z</time>
      </trkpt>
      <trkpt lat="14.818" lon="-61.04946">
        <ele>649.03</ele>
        <time>2016-11-11T20:00:31Z</time>
      </trkpt>
      <trkpt lat="14.81305" lon="-61.0459">
        <ele>646.62</ele>
        <time>2016-11-11T20:00:42Z</time>
      </trkpt>
      <trkpt lat="14.80708" lon="-61.04272">
        <ele>641.34</ele>
        <time>2016-11-11T20:00:54Z</time>
      </trkpt>
      <trkpt lat="14.79904" lon="-61.03877">
        <ele>639.41</ele>
        <time>2016-11-11T20:01:10Z</time>
      </trkpt>
      <trkpt lat="14.78729" lon="-61.0333">
        <ele>624.99</ele>
        <time>2016-11-11T20:01:33Z</time>
      </trkpt>
      <trkpt lat="14.77645" lon="-61.02841">
        <ele>613.46</ele>
        <time>2016-11-11T20:01:54Z</time>
      </trkpt>
      <trkpt lat="14.77259" lon="-61.02737">
        <ele>608.17</ele>
        <time>2016-11-11T20:02:01Z</time>
      </trkpt>
      <trkpt lat="14.76748" lon="-61.0265">
        <ele>604.81</ele>
        <time>2016-11-11T20:02:10Z</time>
      </trkpt>
      <trkpt lat="14.76162" lon="-61.02585">
        <ele>602.88</ele>
        <time>2016-11-11T20:02:20Z</time>
      </trkpt>
      <trkpt lat="14.75397" lon="-61.02552">
        <ele>594.71</ele>
        <time>2016-11-11T20:02:33Z</time>
      </trkpt>
      <trkpt lat="14.74511" lon="-61.02523">
        <ele>589.91</ele>
        <time>2016-11-11T20:02:48Z</time>
      </trkpt>
      <trkpt lat="14.73446" lon="-61.02524">
        <ele>592.79</ele>
        <time>2016-11-11T20:03:06Z</time>
      </trkpt>
      <trkpt lat="14.72678" lon="-61.02569">
        <ele>593.27</ele>
        <time>2016-11-11T20:03:19Z</time>
      </trkpt>
      <trkpt lat="14.7217" lon="-61.02674">
        <ele>579.81</ele>
        <time>2016-11-11T20:03:27Z</time>
      </trkpt>
      <trkpt lat="14.71366" lon="-61.02826">
        <ele>563.95</ele>
        <time>2016-11-11T20:03:40Z</time>
      </trkpt>
      <trkpt lat="14.69957" lon="-61.03073">
        <ele>540.4</ele>
        <time>2016-11-11T20:04:03Z</time>
      </trkpt>
      <trkpt lat="14.68911" lon="-61.03278">
        <ele>529.82</ele>
        <time>2016-11-11T20:04:20Z</time>
      </trkpt>
      <trkpt lat="14.68178" lon="-61.0347">
        <ele>522.61</ele>
        <time>2016-11-11T20:04:32Z</time>
      </trkpt>
      <trkpt lat="14.6744" lon="-61.03682">
        <ele>506.75</ele>
        <time>2016-11-11T20:04:44Z</time>
      </trkpt>
      <trkpt lat="14.66833" lon="-61.03838">
        <ele>500.5</ele>
        <time>2016-11-11T20:04:54Z</time>
      </trkpt>
      <trkpt lat="14.65975" lon="-61.04011">
        <ele>455.8</ele>
        <time>2016-11-11T20:05:08Z</time>
      </trkpt>
      <trkpt lat="14.65117" lon="-61.04182">
        <ele>422.64</ele>
        <time>2016-11-11T20:05:22Z</time>
      </trkpt>
      <trkpt lat="14.64438" lon="-61.04282">
        <ele>397.64</ele>
        <time>2016-11-11T20:05:33Z</time>
      </trkpt>
      <trkpt lat="14.63516" lon="-61.04385">
        <ele>362.07</ele>
        <time>2016-11-11T20:05:48Z</time>
      </trkpt>
      <trkpt lat="14.63028" lon="-61.04398">
        <ele>345.25</ele>
        <time>2016-11-11T20:05:56Z</time>
      </trkpt>
      <trkpt lat="14.62424" lon="-61.04369">
        <ele>318.81</ele>
        <time>2016-11-11T20:06:06Z</time>
      </trkpt>
      <trkpt lat="14.61713" lon="-61.04296">
        <ele>291.9</ele>
        <time>2016-11-11T20:06:18Z</time>
      </trkpt>
      <trkpt lat="14.6085" lon="-61.04185">
        <ele>259.69</ele>
        <time>2016-11-11T20:06:33Z</time>
      </trkpt>
      <trkpt lat="14.59903" lon="-61.04024">
        <ele>220.28</ele>
        <time>2016-11-11T20:06:50Z</time>
      </trkpt>
      <trkpt lat="14.5953" lon="-61.03927">
        <ele>202.49</ele>
        <time>2016-11-11T20:06:57Z</time>
      </trkpt>
      <trkpt lat="14.5903" lon="-61.03738">
        <ele>172.69</ele>
        <time>2016-11-11T20:07:07Z</time>
      </trkpt>
      <trkpt lat="14.58847" lon="-61.03639">
        <ele>165</ele>
        <time>2016-11-11T20:07:11Z</time>
      </trkpt>
      <trkpt lat="14.58693" lon="-61.03328">
        <ele>-49.37</ele>
        <time>2016-11-11T20:07:17Z</time>
      </trkpt>
      <trkpt lat="14.58673" lon="-61.03284">
        <ele>-51.29</ele>
        <time>2016-11-11T20:07:18Z</time>
      </trkpt>
      <trkpt lat="14.5865" lon="-61.03055">
        <ele>-84.46</ele>
        <time>2016-11-11T20:07:23Z</time>
      </trkpt>
      <trkpt lat="14.58665" lon="-61.0279">
        <ele>-92.15</ele>
        <time>2016-11-11T20:07:29Z</time>
      </trkpt>
      <trkpt lat="14.58732" lon="-61.02381">
        <ele>-75.81</ele>
        <time>2016-11-11T20:07:39Z</time>
      </trkpt>
      <trkpt lat="14.58823" lon="-61.01956">
        <ele>-43.6</ele>
        <time>2016-11-11T20:07:50Z</time>
      </trkpt>
      <trkpt lat="14.5888" lon="-61.01636">
        <ele>-15.72</ele>
        <time>2016-11-11T20:07:59Z</time>
      </trkpt>
      <trkpt lat="14.58928" lon="-61.01353">
        <ele>1.1</ele>
        <time>2016-11-11T20:08:08Z</time>
      </trkpt>
      <trkpt lat="14.58962" lon="-61.01156">
        <ele>11.19</ele>
        <time>2016-11-11T20:08:16Z</time>
      </trkpt>
      <trkpt lat="14.58992" lon="-61.00963">
        <ele>21.77</ele>
        <time>2016-11-11T20:08:26Z</time>
      </trkpt>
      <trkpt lat="14.59017" lon="-61.00817">
        <ele>29.94</ele>
        <time>2016-11-11T20:08:36Z</time>
      </trkpt>
      <trkpt lat="14.59041" lon="-61.00699">
        <ele>37.15</ele>
        <time>2016-11-11T20:08:47Z</time>
      </trkpt>
      <trkpt lat="14.59045" lon="-61.00686">
        <ele>37.15</ele>
        <time>2016-11-11T20:08:49Z</time>
      </trkpt>
      <trkpt lat="14.59086" lon="-61.00661">
        <ele>41.47</ele>
        <time>2016-11-11T20:08:58Z</time>
      </trkpt>
      <trkpt lat="14.59093" lon="-61.00661">
        <ele>41.95</ele>
        <time>2016-11-11T20:08:59Z</time>
      </trkpt>
      <trkpt lat="14.59234" lon="-61.00698">
        <ele>45.8</ele>
        <time>2016-11-11T20:09:15Z</time>
      </trkpt>
      <trkpt lat="14.5931" lon="-61.00714">
        <ele>50.13</ele>
        <time>2016-11-11T20:09:26Z</time>
      </trkpt>
      <trkpt lat="14.59327" lon="-61.00694">
        <ele>52.53</ele>
        <time>2016-11-11T20:09:34Z</time>
      </trkpt>
      <trkpt lat="14.5933" lon="-61.00675">
        <ele>53.97</ele>
        <time>2016-11-11T20:09:38Z</time>
      </trkpt>
      <trkpt lat="14.59331" lon="-61.00649">
        <ele>55.41</ele>
        <time>2016-11-11T20:09:42Z</time>
      </trkpt>
      <trkpt lat="14.59342" lon="-61.00633">
        <ele>55.41</ele>
        <time>2016-11-11T20:09:49Z</time>
      </trkpt>
      <trkpt lat="14.59342" lon="-61.00638">
        <ele>36.19</ele>
        <time>2016-11-11T20:10:04Z</time>
      </trkpt>
      <trkpt lat="14.59342" lon="-61.00638">
        <ele>34.74</ele>
        <time>2016-11-11T20:10:05Z</time>
      </trkpt>
    </trkseg>
  </trk>
</gpx>